Time,TemperatureF,DewpointF,PressureIn,WindDirection,WindDirectionDegrees,WindSpeedMPH,WindSpeedGustMPH,Humidity,HourlyPrecipIn,Conditions,Clouds,dailyrainin,SoftwareType,DateUTC
2013-06-19 00:00:00,57.1,55.7,29.91,East,88,0.0,0.0,95,0.00,,,0.02,Wunderground v.1.15,2013-06-19 04:00:00,
2013-06-19 00:05:00,57.1,55.7,29.91,East,88,0.0,0.0,95,0.00,,,0.00,Wunderground v.1.15,2013-06-19 04:05:00,
2013-06-19 00:10:00,57.0,55.6,29.91,East,88,0.0,0.0,95,0.00,,,0.00,Wunderground v.1.15,2013-06-19 04:10:00,
2013-06-19 00:15:00,57.1,55.7,29.91,East,88,0.0,0.0,95,0.00,,,0.00,Wunderground v.1.15,2013-06-19 04:15:00,
2013-06-19 00:25:00,57.0,55.6,29.90,East,87,0.0,0.0,95,0.00,,,0.00,Wunderground v.1.15,2013-06-19 04:25:00,
2013-06-19 00:30:00,56.9,55.5,29.91,East,88,0.0,0.0,95,0.00,,,0.00,Wunderground v.1.15,2013-06-19 04:30:00,
2013-06-19 00:40:00,56.7,55.3,29.90,East,88,0.0,0.0,95,0.00,,,0.00,Wunderground v.1.15,2013-06-19 04:40:00,
2013-06-19 00:45:00,56.7,55.3,29.90,East,88,0.0,0.0,95,0.00,,,0.00,Wunderground v.1.15,2013-06-19 04:45:00,
2013-06-19 00:50:00,56.6,55.2,29.90,East,88,0.0,0.0,95,0.00,,,0.00,Wunderground v.1.15,2013-06-19 04:50:00,
2013-06-19 00:56:00,56.5,55.4,29.90,East,88,0.0,0.0,96,0.00,,,0.00,Wunderground v.1.15,2013-06-19 04:56:00,
2013-06-19 01:05:00,56.4,55.3,29.91,East,88,0.0,0.0,96,0.00,,,0.00,Wunderground v.1.15,2013-06-19 05:05:00,
2013-06-19 01:15:00,56.2,55.1,29.90,East,88,0.0,0.0,96,0.00,,,0.00,Wunderground v.1.15,2013-06-19 05:15:00,
2013-06-19 01:25:00,55.8,54.4,29.90,East,87,0.0,0.0,95,0.00,,,0.00,Wunderground v.1.15,2013-06-19 05:25:00,
2013-06-19 01:35:00,55.4,54.3,29.90,East,88,0.0,0.0,96,0.00,,,0.00,Wunderground v.1.15,2013-06-19 05:35:00,
2013-06-19 01:40:00,55.2,54.1,29.90,East,88,0.0,0.0,96,0.00,,,0.00,Wunderground v.1.15,2013-06-19 05:40:00,
2013-06-19 01:50:00,55.0,53.9,29.90,East,88,0.0,0.0,96,0.00,,,0.00,Wunderground v.1.15,2013-06-19 05:50:00,
2013-06-19 02:00:00,55.0,54.2,29.90,East,87,0.0,0.0,97,0.00,,,0.00,Wunderground v.1.15,2013-06-19 06:00:00,
2013-06-19 02:10:00,54.9,54.1,29.90,East,88,0.0,0.0,97,0.00,,,0.00,Wunderground v.1.15,2013-06-19 06:10:00,
2013-06-19 02:20:00,54.6,53.8,29.90,East,88,0.0,0.0,97,0.00,,,0.00,Wunderground v.1.15,2013-06-19 06:20:00,
2013-06-19 02:30:00,54.4,53.6,29.90,East,88,0.0,0.0,97,0.00,,,0.00,Wunderground v.1.15,2013-06-19 06:30:00,
2013-06-19 02:40:00,54.4,53.6,29.90,East,88,0.0,0.0,97,0.00,,,0.00,Wunderground v.1.15,2013-06-19 06:40:00,
2013-06-19 02:50:00,54.4,53.6,29.90,East,88,0.0,0.0,97,0.00,,,0.00,Wunderground v.1.15,2013-06-19 06:50:00,
2013-06-19 03:00:00,54.3,53.5,29.90,East,88,0.0,0.0,97,0.00,,,0.00,Wunderground v.1.15,2013-06-19 07:00:00,
2013-06-19 03:10:00,54.2,53.4,29.89,East,88,0.0,0.0,97,0.00,,,0.00,Wunderground v.1.15,2013-06-19 07:10:00,
2013-06-19 03:20:00,53.9,53.1,29.89,East,88,0.0,0.0,97,0.00,,,0.00,Wunderground v.1.15,2013-06-19 07:20:00,
2013-06-19 03:25:00,53.8,53.0,29.89,East,88,0.0,0.0,97,0.00,,,0.00,Wunderground v.1.15,2013-06-19 07:25:00,
2013-06-19 03:35:00,53.7,52.9,29.89,East,88,0.0,0.0,97,0.00,,,0.00,Wunderground v.1.15,2013-06-19 07:35:00,
2013-06-19 03:45:00,53.7,52.9,29.90,East,87,0.0,0.0,97,0.00,,,0.00,Wunderground v.1.15,2013-06-19 07:45:00,
2013-06-19 03:55:00,53.7,52.9,29.90,East,87,0.0,0.0,97,0.00,,,0.00,Wunderground v.1.15,2013-06-19 07:55:00,
2013-06-19 04:00:00,53.7,52.9,29.90,East,88,0.0,0.0,97,0.00,,,0.00,Wunderground v.1.15,2013-06-19 08:00:00,
2013-06-19 04:10:00,53.5,52.7,29.90,East,88,0.0,0.0,97,0.00,,,0.00,Wunderground v.1.15,2013-06-19 08:10:00,
2013-06-19 04:20:00,53.4,52.6,29.90,East,88,0.0,0.0,97,0.00,,,0.00,Wunderground v.1.15,2013-06-19 08:20:00,
2013-06-19 04:31:00,53.1,52.3,29.90,East,87,0.0,0.0,97,0.00,,,0.00,Wunderground v.1.15,2013-06-19 08:31:00,
2013-06-19 04:40:00,53.0,52.2,29.90,East,88,0.0,0.0,97,0.00,,,0.00,Wunderground v.1.15,2013-06-19 08:40:00,
2013-06-19 04:50:00,52.8,52.0,29.91,East,88,0.0,0.0,97,0.00,,,0.00,Wunderground v.1.15,2013-06-19 08:50:00,
2013-06-19 05:00:00,52.6,51.8,29.91,ESE,106,0.0,0.0,97,0.00,,,0.00,Wunderground v.1.15,2013-06-19 09:00:00,
2013-06-19 05:05:00,52.5,51.7,29.92,ESE,106,0.0,0.0,97,0.00,,,0.00,Wunderground v.1.15,2013-06-19 09:05:00,
2013-06-19 05:15:00,52.4,51.6,29.91,ESE,106,0.0,0.0,97,0.00,,,0.00,Wunderground v.1.15,2013-06-19 09:15:00,
2013-06-19 05:20:00,52.4,51.3,29.92,ESE,106,0.0,2.0,96,0.00,,,0.00,Wunderground v.1.15,2013-06-19 09:20:00,
2013-06-19 05:30:00,52.6,51.5,29.92,ESE,107,0.0,0.0,96,0.00,,,0.00,Wunderground v.1.15,2013-06-19 09:30:00,
2013-06-19 05:40:00,52.8,51.4,29.92,ESE,107,0.0,0.0,95,0.00,,,0.00,Wunderground v.1.15,2013-06-19 09:40:00,
2013-06-19 05:50:00,53.1,51.4,29.92,ESE,107,0.0,0.0,94,0.00,,,0.00,Wunderground v.1.15,2013-06-19 09:50:00,
2013-06-19 06:00:00,53.5,51.5,29.92,ESE,107,0.0,2.0,93,0.00,,,0.00,Wunderground v.1.15,2013-06-19 10:00:00,
2013-06-19 06:05:00,53.6,51.3,29.92,ESE,113,0.0,2.0,92,0.00,,,0.00,Wunderground v.1.15,2013-06-19 10:05:00,
2013-06-19 06:15:00,53.8,51.5,29.92,ESE,113,0.0,0.0,92,0.00,,,0.00,Wunderground v.1.15,2013-06-19 10:15:00,
2013-06-19 06:25:00,54.1,51.5,29.93,ESE,115,0.0,0.0,91,0.00,,,0.00,Wunderground v.1.15,2013-06-19 10:25:00,
2013-06-19 06:35:00,54.2,51.6,29.93,ESE,114,0.0,0.0,91,0.00,,,0.00,Wunderground v.1.15,2013-06-19 10:35:00,
2013-06-19 06:45:00,54.6,52.0,29.93,ESE,118,0.0,0.0,91,0.00,,,0.00,Wunderground v.1.15,2013-06-19 10:45:00,
2013-06-19 06:55:00,55.5,52.6,29.93,ESE,118,0.0,1.0,90,0.00,,,0.00,Wunderground v.1.15,2013-06-19 10:55:00,
2013-06-19 07:05:00,56.3,52.2,29.93,SW,234,0.0,0.0,86,0.00,,,0.00,Wunderground v.1.15,2013-06-19 11:05:00,
2013-06-19 07:15:00,56.6,52.5,29.94,East,96,0.0,0.0,86,0.00,,,0.00,Wunderground v.1.15,2013-06-19 11:15:00,
2013-06-19 07:25:00,56.9,52.4,29.94,ESE,109,0.0,0.0,85,0.00,,,0.00,Wunderground v.1.15,2013-06-19 11:25:00,
2013-06-19 07:30:00,57.1,52.3,29.94,SSE,155,0.0,5.0,84,0.00,,,0.00,Wunderground v.1.15,2013-06-19 11:30:00,
2013-06-19 07:40:00,57.6,52.8,29.95,ESE,123,0.0,0.0,84,0.00,,,0.00,Wunderground v.1.15,2013-06-19 11:40:00,
2013-06-19 07:50:00,58.2,53.4,29.95,SE,136,0.0,0.0,84,0.00,,,0.00,Wunderground v.1.15,2013-06-19 11:50:00,
2013-06-19 08:00:00,58.8,53.0,29.95,SSE,168,0.0,0.0,81,0.00,,,0.00,Wunderground v.1.15,2013-06-19 12:00:00,
2013-06-19 08:05:00,59.0,53.5,29.95,South,179,0.0,1.0,82,0.00,,,0.00,Wunderground v.1.15,2013-06-19 12:05:00,
2013-06-19 08:15:00,59.0,53.2,29.95,SSW,203,0.0,0.0,81,0.00,,,0.00,Wunderground v.1.15,2013-06-19 12:15:00,
2013-06-19 08:25:00,59.6,54.1,29.96,SSE,149,0.0,0.0,82,0.00,,,0.00,Wunderground v.1.15,2013-06-19 12:25:00,
2013-06-19 08:35:00,60.2,55.3,29.96,South,182,0.0,0.0,84,0.00,,,0.00,Wunderground v.1.15,2013-06-19 12:35:00,
2013-06-19 08:45:00,61.1,54.9,29.96,ESE,114,0.0,0.0,80,0.00,,,0.00,Wunderground v.1.15,2013-06-19 12:45:00,
2013-06-19 08:50:00,61.8,54.9,29.96,East,91,0.0,6.0,78,0.00,,,0.00,Wunderground v.1.15,2013-06-19 12:50:00,
2013-06-19 08:56:00,62.3,53.9,29.96,SE,127,1.0,6.0,74,0.00,,,0.00,Wunderground v.1.15,2013-06-19 12:56:00,
2013-06-19 09:05:00,63.0,54.9,29.97,East,98,1.0,2.0,75,0.00,,,0.00,Wunderground v.1.15,2013-06-19 13:05:00,
2013-06-19 09:15:00,63.8,53.8,29.97,ESE,113,2.0,2.0,70,0.00,,,0.00,Wunderground v.1.15,2013-06-19 13:15:00,
2013-06-19 09:25:00,65.0,55.0,29.97,West,262,1.0,6.0,70,0.00,,,0.00,Wunderground v.1.15,2013-06-19 13:25:00,
2013-06-19 09:35:00,65.2,53.6,29.97,ESE,117,2.0,2.0,66,0.00,,,0.00,Wunderground v.1.15,2013-06-19 13:35:00,
2013-06-19 09:45:00,66.1,54.4,29.97,WSW,248,0.0,1.0,66,0.00,,,0.00,Wunderground v.1.15,2013-06-19 13:45:00,
2013-06-19 09:55:00,66.9,53.5,29.97,WSW,244,0.0,1.0,62,0.00,,,0.00,Wunderground v.1.15,2013-06-19 13:55:00,
2013-06-19 10:05:00,67.0,54.4,29.97,ESE,109,1.0,1.0,64,0.00,,,0.00,Wunderground v.1.15,2013-06-19 14:05:00,
2013-06-19 10:15:00,67.3,54.7,29.98,ESE,118,1.0,5.0,64,0.00,,,0.00,Wunderground v.1.15,2013-06-19 14:15:00,
2013-06-19 10:20:00,66.9,52.6,29.98,East,84,1.0,4.0,60,0.00,,,0.00,Wunderground v.1.15,2013-06-19 14:20:00,
2013-06-19 10:30:00,66.8,53.8,29.98,East,92,1.0,1.0,63,0.00,,,0.00,Wunderground v.1.15,2013-06-19 14:30:00,
2013-06-19 10:40:00,67.4,53.5,29.98,East,92,1.0,5.0,61,0.00,,,0.00,Wunderground v.1.15,2013-06-19 14:40:00,
2013-06-19 10:45:00,67.5,54.0,29.98,SE,137,1.0,5.0,62,0.00,,,0.00,Wunderground v.1.15,2013-06-19 14:45:00,
2013-06-19 10:55:00,68.4,54.4,29.98,SSE,163,1.0,1.0,61,0.00,,,0.00,Wunderground v.1.15,2013-06-19 14:55:00,
2013-06-19 11:00:00,68.7,55.6,29.98,East,86,1.0,1.0,63,0.00,,,0.01,Wunderground v.1.15,2013-06-19 15:00:00,
2013-06-19 11:10:00,68.9,53.5,29.99,East,87,1.0,1.0,58,0.00,,,0.01,Wunderground v.1.15,2013-06-19 15:10:00,
2013-06-19 11:20:00,68.9,53.0,29.98,East,101,1.0,1.0,57,0.00,,,0.01,Wunderground v.1.15,2013-06-19 15:20:00,
2013-06-19 11:25:00,68.6,54.2,29.98,ESE,107,1.0,1.0,60,0.00,,,0.01,Wunderground v.1.15,2013-06-19 15:25:00,
2013-06-19 11:35:00,68.7,53.8,29.98,SSW,197,1.0,3.0,59,0.00,,,0.01,Wunderground v.1.15,2013-06-19 15:35:00,
2013-06-19 11:45:00,69.4,54.4,29.98,South,184,0.0,0.0,59,0.00,,,0.01,Wunderground v.1.15,2013-06-19 15:45:00,
2013-06-19 11:50:00,68.1,52.3,29.98,SSE,167,1.0,1.0,57,0.00,,,0.01,Wunderground v.1.15,2013-06-19 15:50:00,
2013-06-19 12:00:00,68.3,55.2,29.98,SE,136,1.0,1.0,63,0.00,,,0.01,Wunderground v.1.15,2013-06-19 16:00:00,
2013-06-19 12:10:00,69.7,53.8,29.98,SE,132,1.0,2.0,57,0.00,,,0.01,Wunderground v.1.15,2013-06-19 16:10:00,
2013-06-19 12:20:00,69.9,54.4,29.98,ESE,117,1.0,1.0,58,0.00,,,0.01,Wunderground v.1.15,2013-06-19 16:20:00,
2013-06-19 12:25:00,69.7,53.8,29.98,East,100,1.0,1.0,57,0.00,,,0.01,Wunderground v.1.15,2013-06-19 16:25:00,
2013-06-19 12:35:00,70.3,53.4,29.98,ESE,110,1.0,1.0,55,0.00,,,0.01,Wunderground v.1.15,2013-06-19 16:35:00,
2013-06-19 12:45:00,70.9,52.4,29.98,SW,221,1.0,2.0,52,0.00,,,0.01,Wunderground v.1.15,2013-06-19 16:45:00,
2013-06-19 12:55:00,71.4,55.9,29.98,NNE,25,1.0,1.0,58,0.00,,,0.01,Wunderground v.1.15,2013-06-19 16:55:00,
2013-06-19 13:05:00,71.1,51.0,29.98,East,90,1.0,3.0,49,0.00,,,0.01,Wunderground v.1.15,2013-06-19 17:05:00,
2013-06-19 13:10:00,70.9,52.4,29.98,East,84,1.0,1.0,52,0.00,,,0.01,Wunderground v.1.15,2013-06-19 17:10:00,
2013-06-19 13:20:00,71.7,54.7,29.98,South,178,1.0,1.0,55,0.00,,,0.01,Wunderground v.1.15,2013-06-19 17:20:00,
2013-06-19 13:30:00,70.9,53.9,29.98,East,98,1.0,4.0,55,0.00,,,0.01,Wunderground v.1.15,2013-06-19 17:30:00,
2013-06-19 13:40:00,71.3,51.7,29.98,NE,49,1.0,1.0,50,0.00,,,0.01,Wunderground v.1.15,2013-06-19 17:40:00,
2013-06-19 13:50:00,72.4,53.8,29.98,NE,51,0.0,0.0,52,0.00,,,0.01,Wunderground v.1.15,2013-06-19 17:50:00,
2013-06-19 13:55:00,72.6,51.8,29.98,East,86,1.0,1.0,48,0.00,,,0.01,Wunderground v.1.15,2013-06-19 17:55:00,
2013-06-19 14:05:00,72.4,52.2,29.98,SSW,204,0.0,1.0,49,0.00,,,0.01,Wunderground v.1.15,2013-06-19 18:05:00,
2013-06-19 14:15:00,71.7,51.0,29.98,SSW,204,0.0,1.0,48,0.00,,,0.01,Wunderground v.1.15,2013-06-19 18:15:00,
2013-06-19 14:20:00,71.1,54.1,29.98,SSW,204,0.0,0.0,55,0.00,,,0.01,Wunderground v.1.15,2013-06-19 18:20:00,
2013-06-19 14:25:00,70.7,53.7,29.98,SSW,203,0.0,0.0,55,0.00,,,0.01,Wunderground v.1.15,2013-06-19 18:25:00,
2013-06-19 14:35:00,71.3,53.3,29.98,East,97,1.0,2.0,53,0.00,,,0.01,Wunderground v.1.15,2013-06-19 18:35:00,
2013-06-19 14:45:00,72.6,52.3,29.98,ESE,107,0.0,2.0,49,0.00,,,0.01,Wunderground v.1.15,2013-06-19 18:45:00,
2013-06-19 14:55:00,73.0,53.8,29.98,East,100,1.0,1.0,51,0.00,,,0.01,Wunderground v.1.15,2013-06-19 18:55:00,
2013-06-19 15:05:00,73.1,48.6,29.98,SSW,207,1.0,3.0,42,0.00,,,0.01,Wunderground v.1.15,2013-06-19 19:05:00,
2013-06-19 15:15:00,72.7,51.3,29.99,SSW,195,0.0,0.0,47,0.00,,,0.01,Wunderground v.1.15,2013-06-19 19:15:00,
2013-06-19 15:25:00,73.6,52.1,29.98,SSW,192,0.0,1.0,47,0.00,,,0.01,Wunderground v.1.15,2013-06-19 19:25:00,
2013-06-19 15:30:00,73.9,50.6,29.99,SSW,192,0.0,0.0,44,0.00,,,0.01,Wunderground v.1.15,2013-06-19 19:30:00,
2013-06-19 15:35:00,72.9,50.3,29.99,WSW,238,1.0,1.0,45,0.00,,,0.01,Wunderground v.1.15,2013-06-19 19:35:00,
2013-06-19 15:45:00,71.9,50.6,29.99,East,96,0.0,2.0,47,0.00,,,0.01,Wunderground v.1.15,2013-06-19 19:45:00,
2013-06-19 15:55:00,71.6,49.1,29.99,East,82,0.0,1.0,45,0.00,,,0.01,Wunderground v.1.15,2013-06-19 19:55:00,
2013-06-19 16:00:00,71.5,51.9,29.99,East,82,0.0,1.0,50,0.00,,,0.01,Wunderground v.1.15,2013-06-19 20:00:00,
2013-06-19 16:10:00,72.2,51.4,29.99,SW,221,0.0,6.0,48,0.00,,,0.01,Wunderground v.1.15,2013-06-19 20:10:00,
2013-06-19 16:20:00,72.5,52.2,29.99,SSE,147,0.0,0.0,49,0.00,,,0.01,Wunderground v.1.15,2013-06-19 20:20:00,
2013-06-19 16:30:00,72.0,52.3,30.00,SSE,148,0.0,0.0,50,0.00,,,0.01,Wunderground v.1.15,2013-06-19 20:30:00,
2013-06-19 16:40:00,71.3,48.3,30.00,ESE,105,0.0,0.0,44,0.00,,,0.01,Wunderground v.1.15,2013-06-19 20:40:00,
2013-06-19 16:50:00,71.0,51.4,30.00,ENE,63,0.0,0.0,50,0.00,,,0.01,Wunderground v.1.15,2013-06-19 20:50:00,
2013-06-19 17:00:00,70.8,51.8,30.00,SSE,157,0.0,0.0,51,0.00,,,0.01,Wunderground v.1.15,2013-06-19 21:00:00,
2013-06-19 17:10:00,70.4,50.3,29.99,SSE,161,0.0,0.0,49,0.00,,,0.01,Wunderground v.1.15,2013-06-19 21:10:00,
2013-06-19 17:20:00,70.1,48.4,29.99,SSE,153,0.0,0.0,46,0.00,,,0.01,Wunderground v.1.15,2013-06-19 21:20:00,
2013-06-19 17:30:00,69.9,48.7,29.99,SSE,153,0.0,0.0,47,0.00,,,0.01,Wunderground v.1.15,2013-06-19 21:30:00,
2013-06-19 17:40:00,69.7,49.1,29.99,SSE,153,0.0,0.0,48,0.00,,,0.01,Wunderground v.1.15,2013-06-19 21:40:00,
2013-06-19 17:50:00,69.4,50.5,30.00,SSW,208,0.0,0.0,51,0.00,,,0.01,Wunderground v.1.15,2013-06-19 21:50:00,
2013-06-19 17:55:00,69.4,48.3,30.00,SSW,213,0.0,1.0,47,0.00,,,0.01,Wunderground v.1.15,2013-06-19 21:55:00,
2013-06-19 18:05:00,69.5,47.8,30.00,SSW,205,0.0,0.0,46,0.00,,,0.01,Wunderground v.1.15,2013-06-19 22:05:00,
2013-06-19 18:15:00,69.3,49.9,30.00,SSW,206,0.0,0.0,50,0.00,,,0.01,Wunderground v.1.15,2013-06-19 22:15:00,
2013-06-19 18:50:00,67.8,48.5,30.01,SSW,200,0.0,0.0,50,0.00,,,0.01,Wunderground v.1.15,2013-06-19 22:50:00,
2013-06-19 19:00:00,67.4,49.2,30.01,SSW,200,0.0,0.0,52,0.00,,,0.01,Wunderground v.1.15,2013-06-19 23:00:00,
2013-06-19 19:10:00,66.7,50.0,30.01,SSW,199,0.0,0.0,55,0.00,,,0.01,Wunderground v.1.15,2013-06-19 23:10:00,
2013-06-19 19:20:00,65.9,50.2,30.02,SSW,199,0.0,0.0,57,0.00,,,0.01,Wunderground v.1.15,2013-06-19 23:20:00,
2013-06-19 19:30:00,65.3,50.6,30.02,SSW,199,0.0,0.0,59,0.00,,,0.01,Wunderground v.1.15,2013-06-19 23:30:00,
2013-06-19 19:40:00,64.7,50.5,30.02,SSW,200,0.0,0.0,60,0.00,,,0.01,Wunderground v.1.15,2013-06-19 23:40:00,
2013-06-19 19:50:00,64.2,50.0,30.03,SSW,200,0.0,0.0,60,0.00,,,0.01,Wunderground v.1.15,2013-06-19 23:50:00,
2013-06-19 20:00:00,63.6,50.3,30.03,SSW,200,0.0,0.0,62,0.00,,,0.01,Wunderground v.1.15,2013-06-20 00:00:00,
2013-06-19 20:10:00,63.0,49.8,30.03,SSW,199,0.0,0.0,62,0.00,,,0.01,Wunderground v.1.15,2013-06-20 00:10:00,
2013-06-19 20:20:00,62.4,50.1,30.04,SSW,200,0.0,0.0,64,0.00,,,0.01,Wunderground v.1.15,2013-06-20 00:20:00,
2013-06-19 20:30:00,61.8,50.7,30.04,SSW,200,0.0,0.0,67,0.00,,,0.01,Wunderground v.1.15,2013-06-20 00:30:00,
2013-06-19 20:40:00,61.2,49.3,30.04,SSW,200,0.0,0.0,65,0.00,,,0.01,Wunderground v.1.15,2013-06-20 00:40:00,
2013-06-19 20:50:00,60.7,49.7,30.05,SSW,200,0.0,0.0,67,0.00,,,0.01,Wunderground v.1.15,2013-06-20 00:50:00,
2013-06-19 21:00:00,60.3,48.5,30.06,SSW,199,0.0,0.0,65,0.00,,,0.01,Wunderground v.1.15,2013-06-20 01:00:00,
2013-06-19 21:10:00,60.2,48.0,30.06,SSW,200,0.0,0.0,64,0.00,,,0.01,Wunderground v.1.15,2013-06-20 01:10:00,
2013-06-19 21:20:00,60.1,48.7,30.07,SSW,199,0.0,0.0,66,0.00,,,0.01,Wunderground v.1.15,2013-06-20 01:20:00,
2013-06-19 21:30:00,60.0,48.2,30.07,SSW,199,0.0,0.0,65,0.00,,,0.01,Wunderground v.1.15,2013-06-20 01:30:00,
2013-06-19 21:40:00,59.9,48.5,30.07,SSW,200,0.0,0.0,66,0.00,,,0.01,Wunderground v.1.15,2013-06-20 01:40:00,
2013-06-19 21:50:00,59.8,48.4,30.08,SSW,199,0.0,0.0,66,0.00,,,0.01,Wunderground v.1.15,2013-06-20 01:50:00,
2013-06-19 22:00:00,59.6,47.8,30.08,SSW,200,0.0,0.0,65,0.00,,,0.01,Wunderground v.1.15,2013-06-20 02:00:00,
2013-06-19 22:10:00,59.4,48.0,30.08,SSW,200,0.0,0.0,66,0.00,,,0.01,Wunderground v.1.15,2013-06-20 02:10:00,
2013-06-19 22:15:00,59.3,48.7,30.08,SE,146,0.0,0.0,68,0.00,,,0.01,Wunderground v.1.15,2013-06-20 02:15:00,
2013-06-19 22:25:00,59.1,48.1,30.09,SE,146,0.0,0.0,67,0.00,,,0.01,Wunderground v.1.15,2013-06-20 02:25:00,
2013-06-19 22:35:00,59.0,48.1,30.09,SSE,147,0.0,0.0,67,0.00,,,0.01,Wunderground v.1.15,2013-06-20 02:35:00,
2013-06-19 22:45:00,59.0,48.1,30.09,SE,146,0.0,0.0,67,0.00,,,0.01,Wunderground v.1.15,2013-06-20 02:45:00,
2013-06-19 22:55:00,59.0,48.1,30.09,SSE,147,0.0,0.0,67,0.00,,,0.01,Wunderground v.1.15,2013-06-20 02:55:00,
2013-06-19 23:05:00,58.8,48.3,30.10,SSE,147,0.0,0.0,68,0.00,,,0.01,Wunderground v.1.15,2013-06-20 03:05:00,
2013-06-19 23:15:00,58.4,47.9,30.10,SSE,147,0.0,0.0,68,0.00,,,0.01,Wunderground v.1.15,2013-06-20 03:15:00,
2013-06-19 23:25:00,58.1,47.6,30.10,SE,146,0.0,0.0,68,0.00,,,0.01,Wunderground v.1.15,2013-06-20 03:25:00,
2013-06-19 23:35:00,57.8,48.1,30.11,SSE,147,0.0,0.0,70,0.00,,,0.01,Wunderground v.1.15,2013-06-20 03:35:00,
2013-06-19 23:45:00,57.6,48.3,30.11,SSE,147,0.0,0.0,71,0.00,,,0.01,Wunderground v.1.15,2013-06-20 03:45:00,
2013-06-19 23:50:00,57.6,47.5,30.11,SE,146,0.0,0.0,69,0.00,,,0.01,Wunderground v.1.15,2013-06-20 03:50:00,